CheckWX is a tool to help pilots better visualize weather data.  It is not intended as a substitute for an official pre-flight weather briefing.

08:44:09 UTC

KPPO METAR
La Porte Municipal Airport
La Porte, Indiana, USA
Current

9 mins ago

KPPO 180835Z AUTO 00000KT 10SM CLR 00/00 A3007 RMK AO2 T10011003
Observed
Oct-18 @ 08:35 UTC
Visibility
10 SM
Flight Rules
VFR
Cloud Levels
  • Clear skies
Temperature
-0°C / 32°F
Dewpoint
-0°C / 32°F
Humidity
100%
Altimeter
30.07" Hg
Pressure
1018.32 hPa
Previous

29 mins ago

KPPO 180815Z AUTO 00000KT 10SM CLR 00/00 A3007 RMK AO2 T00001002
Observed
Oct-18 @ 08:15 UTC
Visibility
10 SM
Flight Rules
VFR
Cloud Levels
  • Clear skies
Temperature
C / 32°F
Dewpoint
-0°C / 32°F
Humidity
100%
Altimeter
30.07" Hg
Pressure
1018.32 hPa
Previous

49 mins ago

KPPO 180755Z AUTO 00000KT 10SM CLR 00/00 A3007 RMK AO2 T00020000
Observed
Oct-18 @ 07:55 UTC
Visibility
10 SM
Flight Rules
VFR
Cloud Levels
  • Clear skies
Temperature
C / 32°F
Dewpoint
C / 32°F
Humidity
100%
Altimeter
30.07" Hg
Pressure
1018.32 hPa